createdAt,value
2022-10-09T00:00:50.065Z,88.12
2022-10-09T00:03:17.474Z,87.70
2022-10-09T00:05:45.701Z,88.25
2022-10-09T00:08:12.436Z,88.46
2022-10-09T00:10:43.126Z,88.36
2022-10-09T00:13:10.296Z,88.09
2022-10-09T00:15:41.785Z,88.51
2022-10-09T00:18:10.267Z,88.53
2022-10-09T00:20:42.622Z,88.18
2022-10-09T00:23:09.739Z,87.07
2022-10-09T00:25:36.290Z,86.01
2022-10-09T00:28:04.588Z,86.20
2022-10-09T00:30:31.672Z,86.27
2022-10-09T00:32:58.180Z,85.84
2022-10-09T00:35:24.827Z,86.38
2022-10-09T00:37:51.303Z,86.20
2022-10-09T00:40:17.836Z,86.05
2022-10-09T00:42:45.777Z,85.19
2022-10-09T00:45:20.889Z,85.40
2022-10-09T00:47:51.127Z,85.21
2022-10-09T00:50:20.744Z,85.24
2022-10-09T00:52:50.945Z,85.54
2022-10-09T00:55:18.950Z,85.90
2022-10-09T00:57:46.275Z,86.21
2022-10-09T01:00:14.105Z,86.56
2022-10-09T01:02:40.857Z,85.37
2022-10-09T01:05:09.239Z,85.12
2022-10-09T01:07:42.958Z,84.80
2022-10-09T01:10:33.107Z,84.57
2022-10-09T01:13:12.747Z,85.20
2022-10-09T01:15:54.336Z,84.28
2022-10-09T01:18:42.059Z,84.53
2022-10-09T01:21:23.364Z,85.28
2022-10-09T01:24:23.030Z,85.54
2022-10-09T01:26:56.091Z,85.12
2022-10-09T01:29:26.795Z,84.34
2022-10-09T01:31:55.089Z,85.58
2022-10-09T01:34:24.154Z,85.70
2022-10-09T01:37:00.289Z,85.30
2022-10-09T01:39:28.763Z,85.12
2022-10-09T01:41:55.870Z,85.30
2022-10-09T01:44:31.541Z,85.72
2022-10-09T01:46:58.828Z,85.59
2022-10-09T01:49:48.565Z,85.53
2022-10-09T01:52:46.991Z,85.92
2022-10-09T01:55:38.863Z,85.33
2022-10-09T01:58:14.621Z,85.92
2022-10-09T02:00:54.629Z,85.15
2022-10-09T02:03:23.590Z,85.38
2022-10-09T02:05:53.055Z,86.92
2022-10-09T02:08:22.376Z,87.51
2022-10-09T02:10:53.420Z,87.18
2022-10-09T02:13:20.866Z,88.16
2022-10-09T02:15:52.870Z,89.27
2022-10-09T02:18:28.347Z,88.38
2022-10-09T02:21:00.415Z,88.23
2022-10-09T02:23:28.899Z,88.37
2022-10-09T02:25:55.718Z,87.96
2022-10-09T02:28:22.357Z,88.72
2022-10-09T02:30:56.379Z,87.04
2022-10-09T02:33:33.450Z,87.18
2022-10-09T02:36:01.073Z,87.16
2022-10-09T02:38:27.784Z,87.40
2022-10-09T02:41:00.643Z,89.08
2022-10-09T02:43:27.924Z,88.05
2022-10-09T02:45:55.002Z,87.96
2022-10-09T02:48:21.721Z,87.77
2022-10-09T02:50:48.248Z,88.30
2022-10-09T02:53:14.712Z,88.56
2022-10-09T02:55:41.289Z,88.43
2022-10-09T02:58:07.763Z,87.58
2022-10-09T03:00:34.287Z,87.22
2022-10-09T03:03:00.865Z,87.28
2022-10-09T03:05:27.491Z,87.14
2022-10-09T03:07:53.944Z,86.96
2022-10-09T03:10:21.369Z,87.85
2022-10-09T03:12:48.574Z,87.46
2022-10-09T03:15:15.735Z,88.05
2022-10-09T03:17:42.199Z,87.38
2022-10-09T03:20:09.721Z,87.78
2022-10-09T03:22:36.294Z,90.26
2022-10-09T03:25:02.760Z,88.98
2022-10-09T03:27:30.842Z,88.99
2022-10-09T03:29:58.593Z,89.11
2022-10-09T03:32:25.223Z,88.46
2022-10-09T03:34:51.926Z,88.24
2022-10-09T03:37:18.565Z,89.33
2022-10-09T03:39:45.070Z,88.16
2022-10-09T03:42:11.658Z,88.54
2022-10-09T03:44:38.151Z,89.35
2022-10-09T03:47:04.692Z,88.67
2022-10-09T03:49:31.190Z,87.46
2022-10-09T03:51:57.694Z,87.70
2022-10-09T03:54:24.197Z,87.45
2022-10-09T03:56:50.662Z,88.40
2022-10-09T03:59:17.116Z,88.77
2022-10-09T04:01:43.609Z,88.37
2022-10-09T04:04:10.090Z,89.53
2022-10-09T04:06:39.059Z,90.13
2022-10-09T04:09:05.668Z,89.47
2022-10-09T04:11:32.230Z,91.36
2022-10-09T04:13:58.848Z,91.71
2022-10-09T04:16:25.327Z,91.64
2022-10-09T04:18:52.054Z,91.22
2022-10-09T04:21:18.772Z,92.55
2022-10-09T04:23:45.580Z,91.92
2022-10-09T04:26:13.114Z,92.52
2022-10-09T04:28:39.731Z,93.39
2022-10-09T04:31:06.498Z,92.86
2022-10-09T04:33:33.159Z,93.01
2022-10-09T04:35:59.681Z,94.10
2022-10-09T04:38:26.572Z,93.16
2022-10-09T04:41:03.702Z,92.81
2022-10-09T04:43:30.584Z,93.56
2022-10-09T04:45:57.176Z,93.28
2022-10-09T04:48:24.130Z,94.00
2022-10-09T04:50:50.805Z,93.61
2022-10-09T04:53:17.654Z,93.06
2022-10-09T04:55:45.056Z,93.34
2022-10-09T04:58:13.345Z,92.72
2022-10-09T05:00:45.095Z,93.49
2022-10-09T05:03:12.340Z,93.18
2022-10-09T05:05:38.952Z,91.88
2022-10-09T05:08:05.841Z,93.15
2022-10-09T05:10:32.852Z,92.69
2022-10-09T05:12:59.746Z,92.03
2022-10-09T05:15:26.506Z,92.41
2022-10-09T05:17:53.014Z,92.27
2022-10-09T05:20:19.629Z,93.64
2022-10-09T05:22:47.678Z,93.49
2022-10-09T05:25:15.223Z,92.54
2022-10-09T05:27:42.158Z,91.71
2022-10-09T05:30:09.496Z,92.43
2022-10-09T05:32:36.155Z,92.90
2022-10-09T05:35:04.437Z,92.33
2022-10-09T05:37:31.073Z,90.52
2022-10-09T05:39:57.493Z,92.28
2022-10-09T05:42:23.985Z,92.48
2022-10-09T05:44:50.533Z,93.61
2022-10-09T05:47:18.107Z,92.53
2022-10-09T05:49:44.638Z,91.66
2022-10-09T05:52:11.168Z,91.60
2022-10-09T05:54:37.779Z,91.16
2022-10-09T05:57:04.992Z,92.30
2022-10-09T05:59:31.659Z,92.88
2022-10-09T06:01:59.303Z,93.52
2022-10-09T06:04:25.918Z,93.47
2022-10-09T06:06:52.395Z,92.51
2022-10-09T06:09:23.206Z,94.03
2022-10-09T06:11:51.275Z,93.48
2022-10-09T06:14:18.079Z,92.90
2022-10-09T06:16:45.745Z,92.84
2022-10-09T06:19:15.033Z,93.43
2022-10-09T06:21:42.001Z,92.97
2022-10-09T06:24:08.697Z,92.30
2022-10-09T06:26:35.273Z,91.88
2022-10-09T06:29:02.554Z,91.89
2022-10-09T06:31:31.590Z,92.52
2022-10-09T06:33:59.982Z,92.64
2022-10-09T06:36:28.949Z,91.43
2022-10-09T06:38:55.993Z,92.76
2022-10-09T06:41:24.995Z,92.09
2022-10-09T06:43:55.707Z,93.17
2022-10-09T06:46:25.182Z,92.54
2022-10-09T06:48:52.239Z,92.97
2022-10-09T06:51:21.620Z,92.57
2022-10-09T06:53:51.083Z,91.71
2022-10-09T06:56:19.293Z,90.80
2022-10-09T06:58:46.537Z,91.30
2022-10-09T07:01:24.813Z,93.57
2022-10-09T07:03:57.217Z,92.92
2022-10-09T07:06:27.248Z,90.95
2022-10-09T07:08:58.749Z,91.20
2022-10-09T07:11:33.104Z,91.65
2022-10-09T07:14:01.884Z,92.91
2022-10-09T07:16:39.120Z,94.36
2022-10-09T07:19:08.271Z,91.37
2022-10-09T07:21:35.848Z,89.67
2022-10-09T07:24:04.986Z,89.95
2022-10-09T07:26:34.137Z,88.67
2022-10-09T07:29:01.315Z,86.92
2022-10-09T07:31:27.930Z,85.91
2022-10-09T07:33:56.904Z,89.38
2022-10-09T07:36:24.036Z,89.44
2022-10-09T07:38:56.221Z,87.35
2022-10-09T07:41:24.246Z,88.58
2022-10-09T07:43:50.831Z,86.60
2022-10-09T07:46:19.895Z,86.44
2022-10-09T07:48:47.166Z,88.78
2022-10-09T07:51:17.085Z,87.96
2022-10-09T07:53:47.580Z,87.71
2022-10-09T07:56:18.865Z,86.27
2022-10-09T07:58:50.398Z,84.77
2022-10-09T08:01:20.390Z,86.12
2022-10-09T08:03:49.518Z,86.39
2022-10-09T08:06:19.160Z,86.42
2022-10-09T08:08:50.347Z,86.55
2022-10-09T08:11:19.229Z,85.69
2022-10-09T08:13:50.127Z,84.96
2022-10-09T08:16:20.998Z,86.45
2022-10-09T08:18:49.072Z,85.56
2022-10-09T08:21:19.961Z,85.88
2022-10-09T08:23:47.214Z,86.67
2022-10-09T08:26:16.223Z,87.41
2022-10-09T08:28:43.300Z,87.18
2022-10-09T08:31:14.397Z,87.51
2022-10-09T08:33:41.695Z,86.38
2022-10-09T08:36:10.580Z,86.34
2022-10-09T08:38:47.022Z,85.75
2022-10-09T08:41:21.254Z,85.25
2022-10-09T08:43:52.532Z,85.62
2022-10-09T08:46:48.746Z,85.08
2022-10-09T08:49:36.644Z,85.21
2022-10-09T08:52:23.325Z,85.06
2022-10-09T08:54:50.855Z,84.62
2022-10-09T08:57:17.815Z,84.74
2022-10-09T08:59:45.007Z,85.94
2022-10-09T09:02:45.961Z,83.24
2022-10-09T09:05:28.737Z,83.00
2022-10-09T09:08:13.361Z,76.67
2022-10-09T09:10:53.071Z,73.02
2022-10-09T09:13:38.279Z,72.08
2022-10-09T09:16:24.213Z,65.75
2022-10-09T09:19:40.330Z,63.46
2022-10-09T09:22:14.137Z,60.01
2022-10-09T09:24:53.170Z,58.87
2022-10-09T09:27:24.701Z,55.68
2022-10-09T09:33:36.142Z,56.17
2022-10-09T09:36:10.536Z,51.65
2022-10-09T09:38:54.219Z,54.97
2022-10-09T09:41:25.104Z,52.27
2022-10-09T09:43:51.833Z,51.38
2022-10-09T09:46:22.897Z,50.52
2022-10-09T09:48:50.204Z,50.73
2022-10-09T09:51:28.571Z,48.65
2022-10-09T09:54:00.867Z,48.42
2022-10-09T09:59:46.897Z,45.96
2022-10-09T10:02:20.181Z,48.21
2022-10-09T10:04:58.497Z,48.57
2022-10-09T10:11:18.708Z,47.55
2022-10-09T10:13:52.133Z,46.88
2022-10-09T10:16:27.673Z,46.10
2022-10-09T10:18:58.181Z,46.38
2022-10-09T10:21:24.895Z,47.59
2022-10-09T10:26:37.632Z,47.43
2022-10-09T10:29:18.827Z,46.26
2022-10-09T10:31:59.915Z,46.06
2022-10-09T10:34:29.574Z,44.78
2022-10-09T10:37:13.168Z,44.35
2022-10-09T10:39:50.310Z,44.07
2022-10-09T10:42:24.946Z,42.75
2022-10-09T10:45:03.891Z,42.46
2022-10-09T10:47:34.808Z,43.23
2022-10-09T10:50:01.681Z,42.15
2022-10-09T10:52:49.454Z,41.46
2022-10-09T10:55:27.901Z,42.69
2022-10-09T10:58:11.859Z,43.75
2022-10-09T11:00:43.455Z,42.64
2022-10-09T11:03:34.456Z,42.72
2022-10-09T11:06:12.575Z,42.16
2022-10-09T11:08:56.639Z,38.25
2022-10-09T11:11:58.568Z,39.30
2022-10-09T11:14:45.951Z,38.40
2022-10-09T11:17:35.613Z,38.18
2022-10-09T11:20:11.252Z,37.78
2022-10-09T11:22:59.461Z,36.76
2022-10-09T11:25:56.838Z,37.73
2022-10-09T11:28:37.840Z,38.01
2022-10-09T11:31:12.465Z,39.17
2022-10-09T11:33:44.751Z,38.27
2022-10-09T11:36:17.026Z,40.65
2022-10-09T11:38:51.737Z,40.01
2022-10-09T11:41:19.485Z,38.70
2022-10-09T11:43:51.903Z,39.23
2022-10-09T11:46:33.834Z,39.03
2022-10-09T11:49:22.081Z,39.77
2022-10-09T11:52:27.676Z,40.17
2022-10-09T11:54:54.309Z,40.04
2022-10-09T11:57:30.462Z,39.67
2022-10-09T12:00:08.305Z,39.36
2022-10-09T12:02:36.075Z,38.96
2022-10-09T12:05:16.573Z,39.65
2022-10-09T12:07:43.123Z,38.87
2022-10-09T12:10:25.797Z,38.92
2022-10-09T12:12:59.755Z,37.46
2022-10-09T12:15:54.002Z,36.96
2022-10-09T12:18:28.805Z,37.40
2022-10-09T12:20:59.815Z,38.04
2022-10-09T12:23:30.342Z,38.76
2022-10-09T12:25:57.771Z,39.30
2022-10-09T12:28:24.266Z,39.04
2022-10-09T12:30:51.892Z,40.05
2022-10-09T12:33:27.833Z,39.03
2022-10-09T12:36:03.720Z,39.10
2022-10-09T12:38:32.007Z,38.51
2022-10-09T12:41:05.884Z,38.20
2022-10-09T12:43:33.673Z,39.08
2022-10-09T12:46:01.186Z,39.60
2022-10-09T12:48:31.778Z,38.29
2022-10-09T12:50:58.282Z,38.15
2022-10-09T12:53:31.005Z,37.44
2022-10-09T12:56:00.611Z,37.70
2022-10-09T12:58:33.608Z,37.87
2022-10-09T13:01:02.247Z,40.09
2022-10-09T13:03:36.943Z,40.29
2022-10-09T13:06:27.178Z,41.59
2022-10-09T13:09:01.458Z,42.33
2022-10-09T13:11:41.457Z,40.68
2022-10-09T13:14:24.473Z,41.99
2022-10-09T13:16:51.642Z,41.08
2022-10-09T13:19:30.889Z,41.94
2022-10-09T13:22:20.353Z,42.51
2022-10-09T13:24:50.160Z,42.09
2022-10-09T13:27:19.519Z,41.73
2022-10-09T13:29:47.433Z,42.45
2022-10-09T13:32:17.958Z,43.71
2022-10-09T13:34:45.636Z,43.61
2022-10-09T13:37:20.022Z,44.99
2022-10-09T13:39:47.257Z,44.86
2022-10-09T13:42:16.509Z,46.13
2022-10-09T13:44:43.234Z,45.53
2022-10-09T13:47:11.061Z,46.55
2022-10-09T13:49:37.521Z,45.84
2022-10-09T13:52:04.098Z,46.86
2022-10-09T13:54:30.574Z,47.02
2022-10-09T13:56:57.010Z,47.42
2022-10-09T13:59:24.502Z,49.45
2022-10-09T14:01:51.616Z,49.96
2022-10-09T14:04:18.214Z,50.15
2022-10-09T14:06:45.283Z,50.62
2022-10-09T14:09:11.702Z,52.42
2022-10-09T14:11:38.133Z,52.49
2022-10-09T14:14:04.650Z,52.69
2022-10-09T14:16:31.339Z,54.52
2022-10-09T14:19:02.864Z,54.79
2022-10-09T14:21:29.990Z,55.14
2022-10-09T14:24:00.724Z,54.57
2022-10-09T14:26:27.899Z,55.72
2022-10-09T14:28:58.103Z,55.80
2022-10-09T14:31:24.596Z,56.88
2022-10-09T14:33:56.512Z,57.70
2022-10-09T14:36:23.214Z,57.28
2022-10-09T14:38:50.032Z,57.06
2022-10-09T14:41:18.181Z,57.60
2022-10-09T14:43:45.838Z,57.95
2022-10-09T14:46:16.967Z,58.90
2022-10-09T14:48:45.517Z,58.96
2022-10-09T14:51:15.205Z,59.18
2022-10-09T14:53:42.116Z,59.90
2022-10-09T14:56:12.118Z,59.73
2022-10-09T14:58:39.505Z,59.76
2022-10-09T15:01:06.963Z,60.23
2022-10-09T15:03:35.051Z,60.55
2022-10-09T15:06:07.009Z,61.07
2022-10-09T15:08:35.311Z,62.26
2022-10-09T15:11:02.899Z,61.78
2022-10-09T15:13:29.885Z,62.35
2022-10-09T15:16:00.847Z,62.94
2022-10-09T15:18:28.296Z,62.81
2022-10-09T15:20:54.782Z,62.66
2022-10-09T15:23:21.407Z,62.64
2022-10-09T15:25:52.503Z,62.96
2022-10-09T15:28:19.557Z,63.61
2022-10-09T15:30:47.695Z,63.88
2022-10-09T15:33:14.278Z,64.30
2022-10-09T15:35:40.737Z,64.92
2022-10-09T15:38:07.659Z,65.03
2022-10-09T15:40:54.357Z,65.49
2022-10-09T15:43:23.559Z,65.94
2022-10-09T15:45:50.385Z,65.87
2022-10-09T15:48:22.596Z,65.52
2022-10-09T15:50:52.073Z,65.71
2022-10-09T15:53:21.501Z,65.76
2022-10-09T15:55:50.382Z,66.17
2022-10-09T15:58:17.942Z,66.03
2022-10-09T16:00:50.140Z,66.92
2022-10-09T16:03:17.902Z,67.33
2022-10-09T16:05:48.836Z,67.62
2022-10-09T16:08:17.461Z,67.76
2022-10-09T16:10:48.874Z,68.16
2022-10-09T16:13:15.792Z,68.77
2022-10-09T16:15:43.195Z,68.81
2022-10-09T16:18:10.934Z,69.43
2022-10-09T16:20:39.311Z,69.81
2022-10-09T16:23:06.888Z,69.97
2022-10-09T16:25:33.833Z,70.74
2022-10-09T16:28:00.802Z,70.83
2022-10-09T16:30:27.676Z,71.13
2022-10-09T16:32:54.278Z,71.60
2022-10-09T16:35:22.256Z,71.80
2022-10-09T16:37:48.750Z,72.24
2022-10-09T16:40:15.362Z,72.47
2022-10-09T16:42:41.786Z,72.34
2022-10-09T16:45:09.119Z,72.55
2022-10-09T16:47:35.546Z,73.27
2022-10-09T16:50:02.033Z,73.53
2022-10-09T16:52:28.698Z,74.45
2022-10-09T16:54:59.583Z,74.52
2022-10-09T16:57:26.894Z,74.30
2022-10-09T16:59:53.325Z,74.86
2022-10-09T17:02:19.804Z,75.05
2022-10-09T17:04:46.649Z,75.21
2022-10-09T17:07:13.853Z,75.40
2022-10-09T17:09:40.567Z,74.86
2022-10-09T17:12:09.696Z,74.76
2022-10-09T17:14:37.276Z,74.84
2022-10-09T17:17:04.897Z,74.54
2022-10-09T17:19:32.924Z,75.12
2022-10-09T17:22:00.782Z,75.01
2022-10-09T17:24:28.339Z,75.31
2022-10-09T17:26:54.970Z,74.73
2022-10-09T17:29:22.001Z,75.61
2022-10-09T17:31:53.821Z,75.72
2022-10-09T17:34:22.398Z,75.74
2022-10-09T17:36:48.935Z,75.70
2022-10-09T17:39:17.051Z,75.56
2022-10-09T17:41:45.848Z,75.43
2022-10-09T17:44:13.298Z,75.63
2022-10-09T17:46:39.741Z,76.00
2022-10-09T17:49:06.687Z,75.85
2022-10-09T17:51:39.505Z,76.04
2022-10-09T17:54:12.234Z,76.17
2022-10-09T17:56:39.317Z,76.45
2022-10-09T17:59:06.119Z,76.60
2022-10-09T18:01:33.536Z,76.93
2022-10-09T18:04:00.140Z,77.65
2022-10-09T18:06:27.695Z,77.41
2022-10-09T18:08:55.957Z,78.88
2022-10-09T18:11:24.369Z,78.37
2022-10-09T18:13:51.269Z,77.43
2022-10-09T18:16:22.503Z,77.51
2022-10-09T18:18:49.318Z,77.49
2022-10-09T18:21:17.004Z,77.83
2022-10-09T18:23:45.720Z,78.06
2022-10-09T18:26:15.191Z,78.36
2022-10-09T18:28:44.710Z,77.99
2022-10-09T18:31:17.848Z,78.65
2022-10-09T18:33:44.720Z,78.66
2022-10-09T18:36:19.549Z,78.70
2022-10-09T18:38:58.865Z,79.04
2022-10-09T18:41:32.900Z,78.69
2022-10-09T18:44:06.645Z,78.38
2022-10-09T18:46:47.311Z,78.81
2022-10-09T18:49:16.935Z,79.01
2022-10-09T18:51:45.401Z,79.26
2022-10-09T18:54:17.981Z,79.27
2022-10-09T18:56:45.128Z,79.64
2022-10-09T18:59:15.057Z,79.84
2022-10-09T19:01:41.514Z,80.39
2022-10-09T19:04:08.607Z,80.03
2022-10-09T19:06:35.540Z,80.42
2022-10-09T19:09:02.294Z,80.59
2022-10-09T19:11:30.671Z,81.42
2022-10-09T19:14:01.960Z,80.78
2022-10-09T19:16:30.147Z,81.37
2022-10-09T19:18:56.953Z,81.71
2022-10-09T19:21:23.708Z,81.36
2022-10-09T19:23:52.813Z,81.48
2022-10-09T19:26:21.841Z,81.50
2022-10-09T19:28:49.072Z,81.85
2022-10-09T19:31:15.793Z,81.45
2022-10-09T19:33:42.775Z,81.70
2022-10-09T19:36:12.294Z,81.64
2022-10-09T19:38:39.062Z,81.80
2022-10-09T19:41:14.583Z,82.39
2022-10-09T19:43:41.806Z,81.80
2022-10-09T19:46:14.467Z,81.52
2022-10-09T19:48:41.228Z,81.73
2022-10-09T19:51:10.793Z,82.18
2022-10-09T19:53:37.556Z,81.94
2022-10-09T19:56:17.515Z,82.55
2022-10-09T19:58:46.188Z,81.92
2022-10-09T20:01:19.190Z,81.97
2022-10-09T20:03:46.536Z,81.80
2022-10-09T20:06:13.378Z,82.28
2022-10-09T20:08:42.149Z,82.95
2022-10-09T20:11:11.346Z,82.69
2022-10-09T20:13:39.200Z,82.95
2022-10-09T20:16:08.871Z,82.91
2022-10-09T20:18:35.456Z,82.98
2022-10-09T20:21:01.986Z,82.70
2022-10-09T20:23:28.435Z,83.00
2022-10-09T20:26:02.980Z,83.05
2022-10-09T20:28:32.071Z,83.58
2022-10-09T20:31:00.634Z,83.66
2022-10-09T20:33:27.521Z,83.31
2022-10-09T20:35:54.008Z,83.53
2022-10-09T20:38:25.398Z,83.93
2022-10-09T20:40:52.719Z,84.02
2022-10-09T20:43:19.484Z,84.21
2022-10-09T20:45:46.078Z,84.46
2022-10-09T20:48:12.557Z,84.79
2022-10-09T20:50:40.589Z,84.76
2022-10-09T20:53:07.934Z,84.57
2022-10-09T20:55:34.699Z,85.21
2022-10-09T20:58:01.908Z,85.43
2022-10-09T21:00:28.845Z,85.34
2022-10-09T21:02:55.881Z,85.28
2022-10-09T21:05:22.379Z,85.76
2022-10-09T21:07:48.873Z,85.93
2022-10-09T21:10:15.611Z,86.08
2022-10-09T21:12:42.219Z,85.90
2022-10-09T21:15:09.043Z,85.77
2022-10-09T21:17:35.569Z,86.27
2022-10-09T21:20:02.283Z,86.21
2022-10-09T21:22:28.746Z,86.60
2022-10-09T21:24:55.341Z,86.13
2022-10-09T21:27:21.902Z,86.04
2022-10-09T21:29:48.496Z,86.13
2022-10-09T21:32:15.030Z,86.69
2022-10-09T21:34:42.004Z,86.66
2022-10-09T21:37:21.815Z,86.16
2022-10-09T21:39:48.824Z,85.80
2022-10-09T21:42:15.563Z,85.65
2022-10-09T21:44:42.458Z,85.99
2022-10-09T21:47:41.016Z,85.52
2022-10-09T21:50:07.871Z,86.35
2022-10-09T21:52:34.465Z,85.75
2022-10-09T21:55:00.970Z,86.49
2022-10-09T21:57:27.529Z,86.00
2022-10-09T21:59:53.998Z,86.02
2022-10-09T22:02:20.510Z,85.81
2022-10-09T22:04:47.052Z,86.71
2022-10-09T22:07:13.497Z,86.03
2022-10-09T22:09:40.155Z,86.17
2022-10-09T22:12:06.614Z,86.85
2022-10-09T22:14:33.282Z,86.33
2022-10-09T22:16:59.954Z,86.27
2022-10-09T22:19:26.584Z,85.81
2022-10-09T22:21:53.271Z,85.86
2022-10-09T22:24:19.797Z,86.03
2022-10-09T22:26:46.845Z,86.41
2022-10-09T22:29:13.472Z,86.06
2022-10-09T22:31:39.994Z,86.15
2022-10-09T22:34:06.535Z,86.67
2022-10-09T22:36:33.817Z,86.14
2022-10-09T22:39:02.969Z,86.35
2022-10-09T22:41:30.756Z,86.41
2022-10-09T22:43:59.191Z,86.22
2022-10-09T22:46:27.883Z,86.46
2022-10-09T22:48:55.083Z,86.79
2022-10-09T22:51:23.955Z,87.01
2022-10-09T22:53:50.504Z,85.96
2022-10-09T22:56:23.103Z,85.96
2022-10-09T22:58:51.739Z,86.35
2022-10-09T23:01:27.209Z,86.68
2022-10-09T23:03:53.762Z,86.01
2022-10-09T23:06:20.415Z,86.12
2022-10-09T23:08:48.572Z,86.56
2022-10-09T23:11:15.997Z,86.49
2022-10-09T23:13:42.950Z,86.13
2022-10-09T23:16:12.380Z,86.47
2022-10-09T23:18:39.915Z,86.29
2022-10-09T23:21:09.523Z,86.49
2022-10-09T23:23:36.257Z,86.74
2022-10-09T23:26:12.837Z,86.95
2022-10-09T23:28:40.425Z,86.78
2022-10-09T23:31:10.816Z,86.79
2022-10-09T23:33:42.067Z,86.72
2022-10-09T23:36:10.573Z,86.27
2022-10-09T23:38:37.506Z,86.55
2022-10-09T23:41:10.581Z,86.88
2022-10-09T23:43:39.428Z,86.92
2022-10-09T23:46:08.873Z,87.02
2022-10-09T23:48:36.229Z,86.70
2022-10-09T23:51:05.116Z,86.76
2022-10-09T23:53:31.658Z,86.60
2022-10-09T23:55:58.144Z,86.82
2022-10-09T23:58:24.906Z,86.77
